createdAt,value
2018-01-18T00:00:44.532Z,1004.95
2018-01-18T00:01:44.510Z,1004.93
2018-01-18T00:02:44.489Z,1004.93
2018-01-18T00:03:44.466Z,1004.94
2018-01-18T00:04:44.445Z,1004.87
2018-01-18T00:05:44.424Z,1004.86
2018-01-18T00:06:44.401Z,1004.82
2018-01-18T00:07:44.378Z,1004.76
2018-01-18T00:08:44.358Z,1004.77
2018-01-18T00:09:44.336Z,1004.75
2018-01-18T00:10:44.315Z,1004.71
2018-01-18T00:11:44.292Z,1004.74
2018-01-18T00:12:44.269Z,1004.71
2018-01-18T00:13:44.249Z,1004.75
2018-01-18T00:14:44.227Z,1004.73
2018-01-18T00:15:44.204Z,1004.69
2018-01-18T00:16:44.182Z,1004.70
2018-01-18T00:17:44.161Z,1004.67
2018-01-18T00:18:44.138Z,1004.66
2018-01-18T00:19:44.117Z,1004.65
2018-01-18T00:20:44.095Z,1004.60
2018-01-18T00:21:44.072Z,1004.62
2018-01-18T00:22:44.052Z,1004.63
2018-01-18T00:23:44.031Z,1004.61
2018-01-18T00:24:44.007Z,1004.59
2018-01-18T00:25:43.985Z,1004.59
2018-01-18T00:26:43.964Z,1004.56
2018-01-18T00:27:43.941Z,1004.50
2018-01-18T00:28:43.919Z,1004.48
2018-01-18T00:29:43.898Z,1004.39
2018-01-18T00:30:43.876Z,1004.35
2018-01-18T00:31:43.853Z,1004.30
2018-01-18T00:32:43.832Z,1004.27
2018-01-18T00:33:43.848Z,1004.26
2018-01-18T00:34:43.788Z,1004.24
2018-01-18T00:35:43.767Z,1004.20
2018-01-18T00:36:43.745Z,1004.13
2018-01-18T00:37:43.722Z,1004.14
2018-01-18T00:38:43.702Z,1004.08
2018-01-18T00:39:43.679Z,1004.06
2018-01-18T00:40:43.659Z,1003.99
2018-01-18T00:41:43.635Z,1003.98
2018-01-18T00:42:43.614Z,1003.95
2018-01-18T00:43:43.594Z,1003.93
2018-01-18T00:44:43.571Z,1003.91
2018-01-18T00:45:43.549Z,1003.89
2018-01-18T00:46:43.527Z,1003.87
2018-01-18T00:47:43.504Z,1003.80
2018-01-18T00:48:43.483Z,1003.76
2018-01-18T00:49:43.461Z,1003.74
2018-01-18T00:50:43.439Z,1003.66
2018-01-18T00:51:43.417Z,1003.62
2018-01-18T00:52:43.396Z,1003.59
2018-01-18T00:53:43.372Z,1003.51
2018-01-18T00:54:43.349Z,1003.46
2018-01-18T00:55:43.326Z,1003.44
2018-01-18T00:56:43.304Z,1003.41
2018-01-18T00:57:43.283Z,1003.37
2018-01-18T00:58:43.262Z,1003.38
2018-01-18T00:59:43.236Z,1003.37
2018-01-18T01:00:43.215Z,1003.37
2018-01-18T01:01:43.192Z,1003.38
2018-01-18T01:02:43.170Z,1003.40
2018-01-18T01:03:43.147Z,1003.45
2018-01-18T01:04:43.126Z,1003.47
2018-01-18T01:05:43.104Z,1003.46
2018-01-18T01:06:43.081Z,1003.44
2018-01-18T01:07:43.057Z,1003.38
2018-01-18T01:08:43.036Z,1003.38
2018-01-18T01:09:43.013Z,1003.29
2018-01-18T01:10:42.992Z,1003.30
2018-01-18T01:11:42.969Z,1003.29
2018-01-18T01:12:42.945Z,1003.31
2018-01-18T01:13:42.924Z,1003.27
2018-01-18T01:14:42.902Z,1003.28
2018-01-18T01:15:42.878Z,1003.23
2018-01-18T01:16:42.857Z,1003.23
2018-01-18T01:17:42.834Z,1003.18
2018-01-18T01:18:42.813Z,1003.15
2018-01-18T01:19:42.790Z,1003.13
2018-01-18T01:20:42.767Z,1003.10
2018-01-18T01:21:42.746Z,1003.05
2018-01-18T01:22:42.724Z,1003.03
2018-01-18T01:23:42.701Z,1002.97
2018-01-18T01:24:42.679Z,1002.91
2018-01-18T01:25:42.657Z,1002.90
2018-01-18T01:26:42.635Z,1002.82
2018-01-18T01:27:42.612Z,1002.73
2018-01-18T01:28:42.593Z,1002.62
2018-01-18T01:29:42.567Z,1002.59
2018-01-18T01:30:42.546Z,1002.55
2018-01-18T01:31:42.522Z,1002.53
2018-01-18T01:32:42.500Z,1002.51
2018-01-18T01:33:42.481Z,1002.44
2018-01-18T01:34:42.456Z,1002.41
2018-01-18T01:35:42.434Z,1002.43
2018-01-18T01:36:42.411Z,1002.42
2018-01-18T01:37:42.390Z,1002.44
2018-01-18T01:38:42.366Z,1002.43
2018-01-18T01:39:42.343Z,1002.43
2018-01-18T01:40:42.322Z,1002.43
2018-01-18T01:41:42.306Z,1002.36
2018-01-18T01:42:42.277Z,1002.36
2018-01-18T01:43:42.254Z,1002.39
2018-01-18T01:44:42.234Z,1002.37
2018-01-18T01:45:42.211Z,1002.26
2018-01-18T01:46:42.189Z,1002.17
2018-01-18T01:47:42.164Z,1002.18
2018-01-18T01:48:42.143Z,1002.16
2018-01-18T01:49:42.121Z,1002.13
2018-01-18T01:50:42.099Z,1002.04
2018-01-18T01:51:42.076Z,1002.05
2018-01-18T01:52:42.054Z,1002.02
2018-01-18T01:53:42.033Z,1001.98
2018-01-18T01:54:42.009Z,1001.93
2018-01-18T01:55:41.986Z,1001.90
2018-01-18T01:56:41.962Z,1001.86
2018-01-18T01:57:41.942Z,1001.83
2018-01-18T01:58:41.920Z,1001.76
2018-01-18T01:59:41.899Z,1001.75
2018-01-18T02:00:41.874Z,1001.72
2018-01-18T02:01:41.861Z,1001.65
2018-01-18T02:02:41.830Z,1001.64
2018-01-18T02:03:41.806Z,1001.65
2018-01-18T02:04:41.785Z,1001.61
2018-01-18T02:05:41.763Z,1001.59
2018-01-18T02:06:41.740Z,1001.51
2018-01-18T02:07:41.724Z,1001.44
2018-01-18T02:08:41.694Z,1001.44
2018-01-18T02:09:41.673Z,1001.34
2018-01-18T02:10:41.649Z,1001.36
2018-01-18T02:11:41.626Z,1001.25
2018-01-18T02:12:41.604Z,1001.22
2018-01-18T02:13:41.583Z,1001.20
2018-01-18T02:14:41.561Z,1001.11
2018-01-18T02:15:41.538Z,1001.08
2018-01-18T02:16:41.514Z,1001.07
2018-01-18T02:17:41.493Z,1001.00
2018-01-18T02:18:41.469Z,1000.98
2018-01-18T02:19:41.448Z,1000.97
2018-01-18T02:20:41.425Z,1001.01
2018-01-18T02:21:41.403Z,1001.01
2018-01-18T02:22:41.380Z,1000.96
2018-01-18T02:23:41.357Z,1000.87
2018-01-18T02:24:41.338Z,1000.81
2018-01-18T02:25:41.313Z,1000.76
2018-01-18T02:26:41.290Z,1000.72
2018-01-18T02:27:41.268Z,1000.79
2018-01-18T02:28:41.245Z,1000.73
2018-01-18T02:29:41.224Z,1000.77
2018-01-18T02:30:41.203Z,1000.72
2018-01-18T02:31:41.178Z,1000.67
2018-01-18T02:32:41.157Z,1000.61
2018-01-18T02:33:41.133Z,1000.59
2018-01-18T02:34:41.111Z,1000.50
2018-01-18T02:35:41.088Z,1000.38
2018-01-18T02:36:41.064Z,1000.37
2018-01-18T02:37:41.043Z,1000.36
2018-01-18T02:38:41.020Z,1000.38
2018-01-18T02:39:40.997Z,1000.26
2018-01-18T02:40:40.974Z,1000.17
2018-01-18T02:41:40.951Z,1000.10
2018-01-18T02:42:40.931Z,1000.07
2018-01-18T02:43:40.906Z,1000.03
2018-01-18T02:44:40.885Z,1000.04
2018-01-18T02:45:40.861Z,1000.06
2018-01-18T02:46:40.839Z,999.98
2018-01-18T02:47:40.817Z,999.94
2018-01-18T02:48:40.792Z,999.90
2018-01-18T02:49:40.771Z,999.83
2018-01-18T02:50:40.749Z,999.79
2018-01-18T02:51:40.725Z,999.77
2018-01-18T02:52:40.703Z,999.71
2018-01-18T02:53:40.680Z,999.61
2018-01-18T02:54:40.657Z,999.61
2018-01-18T02:55:40.634Z,999.54
2018-01-18T02:56:40.611Z,999.52
2018-01-18T02:57:40.597Z,999.44
2018-01-18T02:58:40.566Z,999.38
2018-01-18T02:59:40.543Z,999.32
2018-01-18T03:00:40.520Z,999.25
2018-01-18T03:01:40.497Z,999.19
2018-01-18T03:02:40.479Z,999.18
2018-01-18T03:03:40.452Z,999.09
2018-01-18T03:04:40.430Z,999.08
2018-01-18T03:05:40.408Z,999.03
2018-01-18T03:06:40.384Z,998.95
2018-01-18T03:07:40.361Z,998.89
2018-01-18T03:08:40.338Z,998.82
2018-01-18T03:09:40.315Z,998.73
2018-01-18T03:10:40.293Z,998.65
2018-01-18T03:11:40.272Z,998.65
2018-01-18T03:12:40.247Z,998.64
2018-01-18T03:13:40.224Z,998.55
2018-01-18T03:14:40.202Z,998.45
2018-01-18T03:15:40.177Z,998.37
2018-01-18T03:16:40.156Z,998.32
2018-01-18T03:17:40.134Z,998.11
2018-01-18T03:18:40.111Z,998.08
2018-01-18T03:19:40.087Z,997.98
2018-01-18T03:20:40.065Z,997.93
2018-01-18T03:21:40.041Z,997.84
2018-01-18T03:22:40.019Z,997.75
2018-01-18T03:23:39.994Z,997.70
2018-01-18T03:24:39.972Z,997.66
2018-01-18T03:25:39.950Z,997.59
2018-01-18T03:26:39.928Z,997.55
2018-01-18T03:27:39.904Z,997.50
2018-01-18T03:28:39.881Z,997.45
2018-01-18T03:29:39.859Z,997.31
2018-01-18T03:30:39.839Z,997.27
2018-01-18T03:31:39.813Z,997.23
2018-01-18T03:32:39.791Z,997.18
2018-01-18T03:33:39.768Z,997.11
2018-01-18T03:34:39.745Z,997.07
2018-01-18T03:35:39.722Z,996.97
2018-01-18T03:36:39.699Z,996.95
2018-01-18T03:37:39.677Z,996.93
2018-01-18T03:38:39.654Z,996.82
2018-01-18T03:39:39.630Z,996.73
2018-01-18T03:40:39.608Z,996.71
2018-01-18T03:41:39.585Z,996.65
2018-01-18T03:42:39.562Z,996.62
2018-01-18T03:43:39.538Z,996.61
2018-01-18T03:44:39.514Z,996.54
2018-01-18T03:45:39.493Z,996.43
2018-01-18T03:46:39.469Z,996.36
2018-01-18T03:47:39.446Z,996.31
2018-01-18T03:48:39.422Z,996.27
2018-01-18T03:49:39.400Z,996.24
2018-01-18T03:50:39.376Z,996.05
2018-01-18T03:51:39.355Z,996.01
2018-01-18T03:52:39.334Z,996.04
2018-01-18T03:53:39.310Z,995.88
2018-01-18T03:54:39.286Z,995.83
2018-01-18T03:55:39.261Z,995.66
2018-01-18T03:56:39.238Z,995.70
2018-01-18T03:57:39.215Z,995.64
2018-01-18T03:58:39.193Z,995.61
2018-01-18T03:59:39.178Z,995.55
2018-01-18T04:00:39.146Z,995.43
2018-01-18T04:01:39.122Z,995.35
2018-01-18T04:02:39.101Z,995.33
2018-01-18T04:03:39.077Z,995.14
2018-01-18T04:04:39.053Z,995.12
2018-01-18T04:05:39.032Z,995.11
2018-01-18T04:06:39.007Z,994.98
2018-01-18T04:07:38.983Z,994.87
2018-01-18T04:08:38.961Z,994.82
2018-01-18T04:09:38.939Z,994.66
2018-01-18T04:10:38.916Z,994.62
2018-01-18T04:11:38.892Z,994.57
2018-01-18T04:12:38.870Z,994.39
2018-01-18T04:13:38.848Z,994.43
2018-01-18T04:14:38.825Z,994.39
2018-01-18T04:15:38.800Z,994.26
2018-01-18T04:16:38.778Z,994.14
2018-01-18T04:17:38.756Z,994.09
2018-01-18T04:18:38.733Z,994.00
2018-01-18T04:19:38.710Z,993.99
2018-01-18T04:20:38.687Z,993.86
2018-01-18T04:21:38.665Z,993.81
2018-01-18T04:22:38.641Z,993.72
2018-01-18T04:23:38.619Z,993.71
2018-01-18T04:24:38.597Z,993.59
2018-01-18T04:25:38.573Z,993.67
2018-01-18T04:26:38.551Z,993.53
2018-01-18T04:27:38.528Z,993.50
2018-01-18T04:28:38.555Z,993.40
2018-01-18T04:29:38.483Z,993.33
2018-01-18T04:30:38.461Z,993.38
2018-01-18T04:31:38.438Z,993.31
2018-01-18T04:32:38.414Z,993.24
2018-01-18T04:33:38.393Z,993.20
2018-01-18T04:34:38.370Z,993.26
2018-01-18T04:35:38.345Z,993.19
2018-01-18T04:36:38.324Z,993.21
2018-01-18T04:37:38.301Z,993.06
2018-01-18T04:38:38.279Z,993.07
2018-01-18T04:39:38.255Z,992.94
2018-01-18T04:40:38.233Z,992.81
2018-01-18T04:41:38.213Z,992.77
2018-01-18T04:42:38.188Z,992.51
2018-01-18T04:43:38.164Z,992.42
2018-01-18T04:44:38.142Z,992.38
2018-01-18T04:45:38.120Z,992.31
2018-01-18T04:46:38.097Z,992.29
2018-01-18T04:47:38.074Z,992.20
2018-01-18T04:48:38.051Z,992.09
2018-01-18T04:49:38.028Z,991.96
2018-01-18T04:50:38.007Z,991.98
2018-01-18T04:51:37.984Z,992.02
2018-01-18T04:52:37.960Z,991.95
2018-01-18T04:53:37.937Z,991.92
2018-01-18T04:54:37.916Z,991.96
2018-01-18T04:55:37.893Z,991.99
2018-01-18T04:56:37.871Z,991.77
2018-01-18T04:57:37.851Z,991.77
2018-01-18T04:58:37.824Z,991.72
2018-01-18T04:59:37.802Z,991.65
2018-01-18T05:00:37.779Z,991.59
2018-01-18T05:01:37.757Z,991.39
2018-01-18T05:02:37.735Z,991.37
2018-01-18T05:03:37.711Z,991.26
2018-01-18T05:04:37.689Z,991.25
2018-01-18T05:05:37.721Z,991.19
2018-01-18T05:06:37.645Z,991.05
2018-01-18T05:07:37.622Z,991.07
2018-01-18T05:08:37.599Z,991.03
2018-01-18T05:09:37.577Z,990.93
2018-01-18T05:10:37.555Z,990.88
2018-01-18T05:11:37.532Z,990.80
2018-01-18T05:12:37.509Z,990.83
2018-01-18T05:13:37.486Z,990.83
2018-01-18T05:14:37.465Z,990.73
2018-01-18T05:15:37.442Z,990.71
2018-01-18T05:16:37.421Z,990.63
2018-01-18T05:17:37.397Z,990.62
2018-01-18T05:18:37.375Z,990.46
2018-01-18T05:19:37.352Z,990.46
2018-01-18T05:20:37.329Z,990.48
2018-01-18T05:21:37.307Z,990.39
2018-01-18T05:22:37.285Z,990.42
2018-01-18T05:23:37.261Z,990.41
2018-01-18T05:24:37.239Z,990.29
2018-01-18T05:25:37.216Z,990.33
2018-01-18T05:26:37.197Z,990.11
2018-01-18T05:27:37.171Z,990.14
2018-01-18T05:28:37.148Z,989.99
2018-01-18T05:29:37.126Z,990.05
2018-01-18T05:30:37.103Z,989.98
2018-01-18T05:31:37.080Z,989.88
2018-01-18T05:32:37.057Z,989.87
2018-01-18T05:33:37.034Z,989.78
2018-01-18T05:34:37.014Z,989.81
2018-01-18T05:35:36.989Z,989.71
2018-01-18T05:36:36.967Z,989.66
2018-01-18T05:37:36.943Z,989.61
2018-01-18T05:38:36.922Z,989.52
2018-01-18T05:39:36.900Z,989.48
2018-01-18T05:40:36.878Z,989.53
2018-01-18T05:41:36.854Z,989.54
2018-01-18T05:42:36.831Z,989.45
2018-01-18T05:43:36.808Z,989.35
2018-01-18T05:44:36.785Z,989.27
2018-01-18T05:45:36.762Z,989.40
2018-01-18T05:46:36.740Z,989.22
2018-01-18T05:47:36.716Z,989.13
2018-01-18T05:48:36.695Z,989.05
2018-01-18T05:49:36.672Z,988.87
2018-01-18T05:50:36.653Z,988.99
2018-01-18T05:51:36.626Z,988.82
2018-01-18T05:52:36.605Z,988.96
2018-01-18T05:53:36.580Z,988.92
2018-01-18T05:54:36.558Z,988.89
2018-01-18T05:55:36.536Z,988.81
2018-01-18T05:56:36.512Z,988.85
2018-01-18T05:57:36.491Z,988.82
2018-01-18T05:58:36.469Z,988.85
2018-01-18T05:59:36.444Z,988.76
2018-01-18T06:00:36.421Z,988.77
2018-01-18T06:01:36.400Z,988.69
2018-01-18T06:02:36.378Z,988.70
2018-01-18T06:03:36.354Z,988.67
2018-01-18T06:04:36.332Z,988.64
2018-01-18T06:05:36.312Z,988.61
2018-01-18T06:06:36.288Z,988.53
2018-01-18T06:07:36.265Z,988.41
2018-01-18T06:08:36.241Z,988.36
2018-01-18T06:09:36.220Z,988.40
2018-01-18T06:10:36.198Z,988.35
2018-01-18T06:11:36.173Z,988.30
2018-01-18T06:12:36.152Z,988.33
2018-01-18T06:13:36.132Z,988.37
2018-01-18T06:14:36.108Z,988.29
2018-01-18T06:15:36.084Z,988.39
2018-01-18T06:16:36.062Z,988.35
2018-01-18T06:17:36.040Z,988.28
2018-01-18T06:18:36.018Z,988.24
2018-01-18T06:19:35.994Z,988.24
2018-01-18T06:20:35.972Z,988.16
2018-01-18T06:21:35.950Z,988.16
2018-01-18T06:22:35.926Z,988.06
2018-01-18T06:23:35.904Z,988.09
2018-01-18T06:24:35.881Z,988.04
2018-01-18T06:25:35.862Z,987.93
2018-01-18T06:26:35.837Z,987.87
2018-01-18T06:27:35.813Z,987.88
2018-01-18T06:28:35.791Z,987.94
2018-01-18T06:29:35.769Z,987.86
2018-01-18T06:30:35.746Z,987.75
2018-01-18T06:31:35.724Z,987.79
2018-01-18T06:32:35.701Z,987.68
2018-01-18T06:33:35.679Z,987.65
2018-01-18T06:34:35.657Z,987.68
2018-01-18T06:35:35.634Z,987.67
2018-01-18T06:36:35.610Z,987.71
2018-01-18T06:37:35.588Z,987.75
2018-01-18T06:38:35.566Z,987.90
2018-01-18T06:39:35.543Z,987.61
2018-01-18T06:40:35.522Z,987.56
2018-01-18T06:41:35.498Z,987.61
2018-01-18T06:42:35.477Z,987.51
2018-01-18T06:43:35.453Z,987.49
2018-01-18T06:44:35.431Z,987.45
2018-01-18T06:45:35.413Z,987.48
2018-01-18T06:46:35.387Z,987.45
2018-01-18T06:47:35.362Z,987.34
2018-01-18T06:48:35.341Z,987.20
2018-01-18T06:49:35.318Z,987.17
2018-01-18T06:50:35.297Z,987.16
2018-01-18T06:51:35.273Z,987.15
2018-01-18T06:52:35.252Z,987.17
2018-01-18T06:53:35.229Z,987.10
2018-01-18T06:54:35.212Z,987.05
2018-01-18T06:55:35.182Z,987.24
2018-01-18T06:56:35.161Z,987.18
2018-01-18T06:57:35.137Z,987.22
2018-01-18T06:58:35.117Z,987.22
2018-01-18T06:59:35.093Z,987.17
2018-01-18T07:00:35.070Z,987.06
2018-01-18T07:01:35.048Z,986.85
2018-01-18T07:02:35.026Z,986.96
2018-01-18T07:03:35.003Z,987.00
2018-01-18T07:04:34.980Z,986.75
2018-01-18T07:05:34.959Z,986.91
2018-01-18T07:06:34.936Z,986.64
2018-01-18T07:07:34.914Z,986.60
2018-01-18T07:08:34.889Z,986.70
2018-01-18T07:09:34.868Z,986.82
2018-01-18T07:10:34.846Z,986.84
2018-01-18T07:11:34.822Z,986.81
2018-01-18T07:12:34.800Z,986.66
2018-01-18T07:13:34.777Z,986.67
2018-01-18T07:14:34.756Z,986.81
2018-01-18T07:15:34.732Z,986.69
2018-01-18T07:16:34.710Z,986.68
2018-01-18T07:17:34.688Z,986.75
2018-01-18T07:18:34.665Z,986.75
2018-01-18T07:19:34.642Z,986.76
2018-01-18T07:20:34.620Z,986.83
2018-01-18T07:21:34.598Z,986.84
2018-01-18T07:22:34.576Z,986.84
2018-01-18T07:23:34.553Z,986.79
2018-01-18T07:24:34.530Z,986.80
2018-01-18T07:25:34.510Z,986.74
2018-01-18T07:26:34.487Z,986.67
2018-01-18T07:27:34.467Z,986.87
2018-01-18T07:28:34.440Z,986.65
2018-01-18T07:29:34.419Z,986.60
2018-01-18T07:30:34.395Z,986.67
2018-01-18T07:31:34.373Z,986.57
2018-01-18T07:32:34.350Z,986.62
2018-01-18T07:33:34.328Z,986.44
2018-01-18T07:34:34.306Z,986.56
2018-01-18T07:35:34.283Z,986.61
2018-01-18T07:36:34.266Z,986.51
2018-01-18T07:37:34.238Z,986.65
2018-01-18T07:38:34.223Z,986.44
2018-01-18T07:39:34.192Z,986.36
2018-01-18T07:40:34.171Z,986.33
2018-01-18T07:41:34.150Z,986.40
2018-01-18T07:42:34.126Z,986.35
2018-01-18T07:43:34.103Z,986.36
2018-01-18T07:44:34.081Z,986.34
2018-01-18T07:45:34.058Z,986.29
2018-01-18T07:46:34.037Z,986.25
2018-01-18T07:47:34.013Z,986.23
2018-01-18T07:48:33.991Z,986.22
2018-01-18T07:49:33.968Z,986.17
2018-01-18T07:50:33.946Z,986.16
2018-01-18T07:51:33.924Z,986.24
2018-01-18T07:52:33.902Z,986.26
2018-01-18T07:53:33.883Z,986.17
2018-01-18T07:54:33.857Z,986.22
2018-01-18T07:55:33.834Z,986.23
2018-01-18T07:56:33.812Z,986.21
2018-01-18T07:57:33.790Z,986.18
2018-01-18T07:58:33.767Z,986.13
2018-01-18T07:59:33.786Z,986.17
2018-01-18T08:00:33.723Z,986.11
2018-01-18T08:01:33.700Z,986.19
2018-01-18T08:02:33.678Z,986.12
2018-01-18T08:03:33.655Z,986.09
2018-01-18T08:04:33.632Z,986.25
2018-01-18T08:05:33.611Z,986.23
2018-01-18T08:06:33.589Z,986.29
2018-01-18T08:07:33.565Z,986.20
2018-01-18T08:08:33.543Z,986.34
2018-01-18T08:09:33.522Z,986.35
2018-01-18T08:10:33.499Z,986.33
2018-01-18T08:11:33.477Z,986.23
2018-01-18T08:12:33.454Z,986.43
2018-01-18T08:13:33.432Z,986.20
2018-01-18T08:14:33.412Z,986.37
2018-01-18T08:15:33.387Z,986.22
2018-01-18T08:16:33.365Z,986.29
2018-01-18T08:17:33.343Z,986.28
2018-01-18T08:18:33.321Z,986.36
2018-01-18T08:19:33.298Z,986.15
2018-01-18T08:20:33.275Z,986.28
2018-01-18T08:21:33.254Z,986.13
2018-01-18T08:22:33.230Z,986.25
2018-01-18T08:23:33.208Z,986.46
2018-01-18T08:24:33.186Z,985.99
2018-01-18T08:25:33.165Z,986.09
2018-01-18T08:26:33.145Z,986.00
2018-01-18T08:27:33.120Z,986.28
2018-01-18T08:28:33.098Z,986.20
2018-01-18T08:29:33.076Z,986.23
2018-01-18T08:30:33.054Z,986.18
2018-01-18T08:31:33.031Z,986.24
2018-01-18T08:32:33.009Z,986.12
2018-01-18T08:33:32.988Z,985.99
2018-01-18T08:34:32.964Z,986.32
2018-01-18T08:35:32.942Z,986.17
2018-01-18T08:36:32.920Z,986.05
2018-01-18T08:37:32.898Z,986.17
2018-01-18T08:38:32.875Z,986.17
2018-01-18T08:39:32.853Z,985.99
2018-01-18T08:40:32.831Z,986.01
2018-01-18T08:41:32.808Z,986.19
2018-01-18T08:42:32.786Z,985.94
2018-01-18T08:43:32.764Z,986.09
2018-01-18T08:44:32.742Z,986.15
2018-01-18T08:45:32.721Z,986.19
2018-01-18T08:46:32.699Z,986.16
2018-01-18T08:47:32.674Z,986.20
2018-01-18T08:48:32.654Z,986.25
2018-01-18T08:49:32.631Z,986.48
2018-01-18T08:50:32.610Z,986.27
2018-01-18T08:51:32.587Z,986.23
2018-01-18T08:52:32.564Z,986.42
2018-01-18T08:53:32.544Z,986.33
2018-01-18T08:54:32.522Z,986.19
2018-01-18T08:55:32.501Z,986.38
2018-01-18T08:56:32.477Z,986.44
2018-01-18T08:57:32.455Z,986.51
2018-01-18T08:58:32.433Z,986.47
2018-01-18T08:59:32.409Z,986.53
2018-01-18T09:00:32.389Z,986.51
2018-01-18T09:01:32.367Z,986.63
2018-01-18T09:02:32.345Z,986.57
2018-01-18T09:03:32.323Z,986.32
2018-01-18T09:04:32.300Z,986.67
2018-01-18T09:05:32.278Z,986.60
2018-01-18T09:06:32.256Z,986.47
2018-01-18T09:07:32.234Z,986.66
2018-01-18T09:08:32.212Z,986.98
2018-01-18T09:09:32.190Z,986.61
2018-01-18T09:10:32.168Z,986.80
2018-01-18T09:11:32.146Z,986.94
2018-01-18T09:12:32.123Z,987.04
2018-01-18T09:13:32.102Z,986.67
2018-01-18T09:14:32.079Z,986.98
2018-01-18T09:15:32.056Z,986.53
2018-01-18T09:16:32.035Z,986.74
2018-01-18T09:17:32.013Z,986.85
2018-01-18T09:18:31.991Z,986.84
2018-01-18T09:19:31.974Z,986.59
2018-01-18T09:20:31.946Z,986.75
2018-01-18T09:21:31.924Z,986.71
2018-01-18T09:22:31.903Z,986.91
2018-01-18T09:23:31.880Z,986.85
2018-01-18T09:24:31.858Z,986.89
2018-01-18T09:25:31.836Z,987.31
2018-01-18T09:26:31.815Z,986.82
2018-01-18T09:27:31.791Z,986.93
2018-01-18T09:28:31.769Z,987.07
2018-01-18T09:29:31.747Z,986.92
2018-01-18T09:30:31.725Z,986.98
2018-01-18T09:31:31.702Z,987.05
2018-01-18T09:32:31.680Z,987.03
2018-01-18T09:33:31.659Z,987.08
2018-01-18T09:34:31.636Z,987.09
2018-01-18T09:35:31.617Z,987.26
2018-01-18T09:36:31.593Z,987.26
2018-01-18T09:37:31.570Z,987.30
2018-01-18T09:38:31.548Z,987.15
2018-01-18T09:39:31.553Z,987.29
2018-01-18T09:40:31.504Z,987.60
2018-01-18T09:41:31.482Z,987.45
2018-01-18T09:42:31.460Z,987.59
2018-01-18T09:43:31.437Z,987.54
2018-01-18T09:44:31.415Z,987.74
2018-01-18T09:45:31.393Z,987.94
2018-01-18T09:46:31.372Z,987.76
2018-01-18T09:47:31.354Z,987.93
2018-01-18T09:48:31.325Z,987.91
2018-01-18T09:49:31.306Z,987.98
2018-01-18T09:50:31.282Z,988.05
2018-01-18T09:51:31.259Z,988.10
2018-01-18T09:52:31.238Z,988.48
2018-01-18T09:53:31.222Z,988.20
2018-01-18T09:54:31.194Z,988.14
2018-01-18T09:55:31.171Z,988.23
2018-01-18T09:56:31.149Z,988.17
2018-01-18T09:57:31.129Z,988.19
2018-01-18T09:58:31.105Z,988.29
2018-01-18T09:59:31.083Z,988.38
2018-01-18T10:00:31.060Z,988.56
2018-01-18T10:01:31.039Z,988.61
2018-01-18T10:02:31.019Z,988.55
2018-01-18T10:03:30.993Z,988.37
2018-01-18T10:04:30.972Z,988.56
2018-01-18T10:05:30.950Z,988.59
2018-01-18T10:06:30.928Z,988.44
2018-01-18T10:07:30.905Z,988.93
2018-01-18T10:08:30.883Z,988.96
2018-01-18T10:09:30.861Z,989.19
2018-01-18T10:10:30.839Z,989.20
2018-01-18T10:11:30.816Z,988.99
2018-01-18T10:12:30.795Z,989.15
2018-01-18T10:13:30.773Z,989.55
2018-01-18T10:14:30.750Z,989.28
2018-01-18T10:15:30.728Z,989.61
2018-01-18T10:16:30.706Z,989.40
2018-01-18T10:17:30.684Z,989.78
2018-01-18T10:18:30.663Z,989.51
2018-01-18T10:19:30.640Z,989.57
2018-01-18T10:20:30.616Z,989.77
2018-01-18T10:21:30.594Z,989.87
2018-01-18T10:22:30.574Z,990.24
2018-01-18T10:23:30.550Z,990.14
2018-01-18T10:24:30.540Z,990.12
2018-01-18T10:25:30.510Z,989.92
2018-01-18T10:26:30.484Z,990.33
2018-01-18T10:27:30.462Z,990.10
2018-01-18T10:28:30.439Z,990.28
2018-01-18T10:29:30.418Z,990.27
2018-01-18T10:30:30.395Z,990.44
2018-01-18T10:31:30.374Z,990.71
2018-01-18T10:32:30.352Z,990.66
2018-01-18T10:33:30.330Z,990.69
2018-01-18T10:34:30.307Z,990.76
2018-01-18T10:35:30.285Z,990.76
2018-01-18T10:36:30.264Z,991.02
2018-01-18T10:37:30.241Z,991.03
2018-01-18T10:38:30.220Z,991.14
2018-01-18T10:39:30.196Z,990.97
2018-01-18T10:40:30.174Z,991.24
2018-01-18T10:41:30.153Z,991.32
2018-01-18T10:42:30.131Z,991.47
2018-01-18T10:43:30.108Z,991.52
2018-01-18T10:44:30.086Z,991.56
2018-01-18T10:45:30.064Z,991.55
2018-01-18T10:46:30.043Z,991.77
2018-01-18T10:47:30.021Z,991.80
2018-01-18T10:48:29.999Z,991.61
2018-01-18T10:49:29.976Z,991.84
2018-01-18T10:50:29.954Z,991.92
2018-01-18T10:51:29.932Z,992.10
2018-01-18T10:52:29.910Z,992.04
2018-01-18T10:53:29.886Z,992.24
2018-01-18T10:54:29.866Z,992.33
2018-01-18T10:55:29.842Z,992.63
2018-01-18T10:56:29.847Z,992.46
2018-01-18T10:57:29.798Z,992.43
2018-01-18T10:58:29.789Z,992.61
2018-01-18T10:59:29.758Z,992.90
2018-01-18T11:00:29.733Z,992.75
2018-01-18T11:01:29.710Z,992.78
2018-01-18T11:02:29.690Z,993.01
2018-01-18T11:03:29.667Z,992.95
2018-01-18T11:04:29.644Z,993.08
2018-01-18T11:05:29.623Z,992.96
2018-01-18T11:06:29.601Z,993.07
2018-01-18T11:07:29.578Z,993.50
2018-01-18T11:08:29.556Z,993.38
2018-01-18T11:09:29.535Z,993.55
2018-01-18T11:10:29.515Z,993.50
2018-01-18T11:11:29.489Z,993.45
2018-01-18T11:12:29.470Z,993.38
2018-01-18T11:13:29.446Z,993.73
2018-01-18T11:14:29.426Z,993.49
2018-01-18T11:15:29.400Z,993.94
2018-01-18T11:16:29.380Z,993.90
2018-01-18T11:17:29.358Z,993.92
2018-01-18T11:18:29.336Z,994.07
2018-01-18T11:19:29.313Z,993.89
2018-01-18T11:20:29.291Z,994.23
2018-01-18T11:21:29.274Z,994.32
2018-01-18T11:22:29.247Z,994.38
2018-01-18T11:23:29.224Z,994.37
2018-01-18T11:24:29.202Z,994.18
2018-01-18T11:25:29.181Z,994.52
2018-01-18T11:26:29.159Z,994.54
2018-01-18T11:27:29.136Z,994.71
2018-01-18T11:28:29.117Z,994.69
2018-01-18T11:29:29.092Z,994.77
2018-01-18T11:30:29.069Z,994.78
2018-01-18T11:31:29.047Z,994.81
2018-01-18T11:32:29.026Z,994.72
2018-01-18T11:33:29.004Z,994.91
2018-01-18T11:34:28.982Z,994.90
2018-01-18T11:35:28.960Z,994.87
2018-01-18T11:36:28.938Z,994.94
2018-01-18T11:37:28.916Z,995.17
2018-01-18T11:38:28.894Z,994.96
2018-01-18T11:39:28.871Z,995.09
2018-01-18T11:40:28.849Z,994.95
2018-01-18T11:41:28.828Z,995.14
2018-01-18T11:42:28.806Z,995.28
2018-01-18T11:43:28.782Z,995.25
2018-01-18T11:44:28.760Z,995.43
2018-01-18T11:45:28.739Z,995.43
2018-01-18T11:46:28.718Z,995.53
2018-01-18T11:47:28.695Z,995.59
2018-01-18T11:48:28.674Z,995.61
2018-01-18T11:49:28.652Z,995.64
2018-01-18T11:50:28.630Z,995.82
2018-01-18T11:51:28.607Z,995.68
2018-01-18T11:52:28.585Z,995.78
2018-01-18T11:53:28.563Z,995.87
2018-01-18T11:54:28.543Z,995.88
2018-01-18T11:55:28.519Z,995.92
2018-01-18T11:56:28.498Z,996.05
2018-01-18T11:57:28.476Z,996.07
2018-01-18T11:58:28.454Z,996.13
2018-01-18T11:59:28.431Z,996.19
2018-01-18T12:00:28.411Z,996.17
2018-01-18T12:01:28.389Z,996.25
2018-01-18T12:02:28.368Z,996.29
2018-01-18T12:03:28.344Z,996.39
2018-01-18T12:04:28.329Z,996.37
2018-01-18T12:05:28.302Z,996.47
2018-01-18T12:06:28.282Z,996.50
2018-01-18T12:07:28.259Z,996.63
2018-01-18T12:08:28.236Z,996.74
2018-01-18T12:09:28.217Z,996.70
2018-01-18T12:10:28.195Z,996.72
2018-01-18T12:11:28.173Z,996.64
2018-01-18T12:12:28.150Z,996.76
2018-01-18T12:13:28.129Z,996.87
2018-01-18T12:14:28.110Z,996.93
2018-01-18T12:15:28.087Z,996.93
2018-01-18T12:16:28.066Z,996.98
2018-01-18T12:17:28.044Z,997.05
2018-01-18T12:18:28.023Z,997.08
2018-01-18T12:19:28.000Z,997.08
2018-01-18T12:20:27.980Z,997.05
2018-01-18T12:21:27.961Z,997.15
2018-01-18T12:22:27.937Z,997.14
2018-01-18T12:23:27.915Z,997.25